Time;durP1;ratioP1;P1;durP2;ratioP2;P2;SDS_P1;SDS_P2;PMS_P1;PMS_P2;Temp;Humidity;BMP_temperature;BMP_pressure;BME280_temperature;BME280_humidity;BME280_pressure;Samples;Min_cycle;Max_cycle;Signal;HPM_P1;HPM_P2
2021/12/23 00:00:22;;;;;;;32.22;16.13;;;;;;;;;;4999633;28;20132;-76
2021/12/23 00:02:48;;;;;;;25.23;14.45;;;;;;;;;;5000441;28;20041;-73
2021/12/23 00:05:13;;;;;;;24.83;14.93;;;;;;;;;;4999101;28;20124;-74
2021/12/23 00:07:39;;;;;;;23.02;13.95;;;;;;;;;;4999704;28;20113;-75
2021/12/23 00:10:07;;;;;;;25.25;14.63;;;;;;;;;;5000757;28;20026;-72
2021/12/23 00:12:36;;;;;;;32.13;14.00;;;;;;;;;;4999516;28;20061;-73
2021/12/23 00:15:03;;;;;;;24.77;14.52;;;;;;;;;;4997918;28;20072;-74
2021/12/23 00:25:44;;;;;;;23.77;14.75;;;;;;;;;;5000505;28;20042;-73
2021/12/23 00:28:10;;;;;;;29.38;15.70;;;;;;;;;;5000816;28;20037;-75
2021/12/23 00:30:35;;;;;;;29.25;15.50;;;;;;;;;;4999036;28;20053;-74
2021/12/23 00:33:01;;;;;;;25.08;15.35;;;;;;;;;;5000649;28;20021;-74
2021/12/23 00:35:26;;;;;;;27.35;14.07;;;;;;;;;;4998017;28;20436;-74
2021/12/23 00:37:59;;;;;;;32.40;15.63;;;;;;;;;;5000536;28;20551;-73
2021/12/23 00:40:24;;;;;;;27.52;15.70;;;;;;;;;;5000635;28;20049;-73
2021/12/23 00:42:50;;;;;;;28.90;15.55;;;;;;;;;;5000398;28;20046;-73
2021/12/23 00:45:15;;;;;;;26.73;14.50;;;;;;;;;;4999208;28;20030;-73
2021/12/23 00:47:41;;;;;;;29.98;15.23;;;;;;;;;;5000569;28;20073;-73
2021/12/23 00:50:07;;;;;;;26.50;15.80;;;;;;;;;;5000356;28;20030;-72
2021/12/23 00:52:35;;;;;;;25.40;14.18;;;;;;;;;;5003740;28;20033;-72
2021/12/23 00:55:04;;;;;;;24.58;14.68;;;;;;;;;;5003851;28;20414;-73
2021/12/23 00:57:30;;;;;;;30.25;15.85;;;;;;;;;;5003444;28;20029;-72
2021/12/23 00:59:58;;;;;;;23.33;14.23;;;;;;;;;;5003772;28;20042;-72
2021/12/23 01:02:28;;;;;;;23.15;15.10;;;;;;;;;;5002265;28;20030;-73
2021/12/23 01:04:54;;;;;;;30.33;15.30;;;;;;;;;;5002180;28;20076;-73
2021/12/23 01:07:19;;;;;;;33.33;16.30;;;;;;;;;;5002871;28;20478;-73
2021/12/23 01:09:45;;;;;;;30.75;15.82;;;;;;;;;;5002401;28;20081;-74
2021/12/23 01:12:13;;;;;;;30.40;17.02;;;;;;;;;;5003743;28;20041;-72
2021/12/23 01:14:53;;;;;;;40.78;17.88;;;;;;;;;;5003588;28;20141;-72
2021/12/23 01:19:51;;;;;;;33.00;16.83;;;;;;;;;;5003269;28;20042;-73
2021/12/23 01:22:17;;;;;;;32.20;16.50;;;;;;;;;;5002032;28;20403;-72
2021/12/23 01:24:43;;;;;;;28.23;15.45;;;;;;;;;;5003235;28;20034;-73
2021/12/23 01:27:09;;;;;;;30.75;16.63;;;;;;;;;;5003384;28;20386;-73
2021/12/23 01:29:34;;;;;;;31.15;17.05;;;;;;;;;;5002869;28;20177;-74
2021/12/23 01:32:03;;;;;;;25.95;14.50;;;;;;;;;;5002969;28;20108;-75
2021/12/23 01:34:29;;;;;;;26.95;15.90;;;;;;;;;;5003048;28;20030;-73
2021/12/23 01:36:55;;;;;;;32.22;15.70;;;;;;;;;;5003291;28;20528;-74
2021/12/23 01:39:20;;;;;;;25.27;15.13;;;;;;;;;;5002517;28;20033;-73
2021/12/23 01:41:46;;;;;;;28.60;15.82;;;;;;;;;;5002606;28;20049;-74
2021/12/23 01:44:11;;;;;;;27.17;14.75;;;;;;;;;;5001648;28;20041;-72
2021/12/23 01:46:37;;;;;;;26.48;14.77;;;;;;;;;;5002656;28;20957;-73
2021/12/23 01:49:03;;;;;;;29.52;16.08;;;;;;;;;;5001546;28;20037;-73
2021/12/23 01:51:28;;;;;;;25.20;13.90;;;;;;;;;;5001797;28;20396;-73
2021/12/23 01:53:54;;;;;;;29.35;15.32;;;;;;;;;;5002422;28;20086;-72
2021/12/23 01:56:19;;;;;;;25.73;13.57;;;;;;;;;;5001146;28;20505;-73
2021/12/23 01:58:45;;;;;;;25.67;15.23;;;;;;;;;;5001441;28;20033;-72
2021/12/23 02:01:11;;;;;;;22.10;12.93;;;;;;;;;;5000216;28;20121;-73
2021/12/23 02:03:38;;;;;;;22.90;12.98;;;;;;;;;;5002197;28;20168;-72
2021/12/23 02:06:03;;;;;;;24.02;14.20;;;;;;;;;;5001397;28;20038;-72
2021/12/23 02:08:29;;;;;;;27.40;13.00;;;;;;;;;;5002420;28;20045;-73
2021/12/23 02:10:55;;;;;;;25.80;13.85;;;;;;;;;;5002547;28;20038;-72
2021/12/23 02:13:21;;;;;;;22.85;12.63;;;;;;;;;;5001628;28;21007;-72
2021/12/23 02:15:47;;;;;;;21.98;11.80;;;;;;;;;;5002275;28;20038;-72
2021/12/23 02:18:12;;;;;;;20.98;11.75;;;;;;;;;;5002436;28;20044;-72
2021/12/23 02:20:38;;;;;;;22.80;12.45;;;;;;;;;;5002233;28;20052;-73
2021/12/23 02:23:04;;;;;;;23.58;11.10;;;;;;;;;;5002103;28;20076;-73
2021/12/23 02:25:29;;;;;;;19.33;11.20;;;;;;;;;;5001506;28;20072;-73
2021/12/23 02:27:55;;;;;;;23.80;10.95;;;;;;;;;;5000656;28;20113;-73
2021/12/23 02:30:26;;;;;;;18.58;11.38;;;;;;;;;;5001375;28;20033;-73
2021/12/23 02:32:52;;;;;;;20.48;10.75;;;;;;;;;;5001886;28;20050;-73
2021/12/23 02:35:21;;;;;;;24.38;11.60;;;;;;;;;;5001502;28;20561;-73
2021/12/23 02:37:47;;;;;;;19.75;10.65;;;;;;;;;;4998097;28;20076;-73
2021/12/23 02:40:27;;;;;;;21.13;10.90;;;;;;;;;;5002734;28;20045;-73
2021/12/23 02:42:54;;;;;;;24.50;11.18;;;;;;;;;;5002301;28;20157;-73
2021/12/23 02:45:19;;;;;;;22.80;10.98;;;;;;;;;;4999769;28;20470;-73
2021/12/23 02:47:45;;;;;;;15.70;10.25;;;;;;;;;;5000012;28;20037;-73
2021/12/23 02:50:10;;;;;;;18.35;10.55;;;;;;;;;;5000788;28;21031;-73
2021/12/23 02:52:36;;;;;;;17.70;9.57;;;;;;;;;;5000296;28;20044;-73
2021/12/23 02:55:04;;;;;;;20.38;10.60;;;;;;;;;;5001930;28;20037;-72
2021/12/23 02:57:34;;;;;;;18.65;10.27;;;;;;;;;;5001586;28;20128;-74
2021/12/23 03:00:00;;;;;;;23.27;10.68;;;;;;;;;;5000375;28;20037;-73
2021/12/23 03:02:26;;;;;;;17.05;10.88;;;;;;;;;;5001543;28;20037;-72
2021/12/23 03:04:51;;;;;;;22.80;12.07;;;;;;;;;;5000365;28;20038;-73
2021/12/23 03:07:17;;;;;;;19.55;11.63;;;;;;;;;;4999542;28;20042;-73
2021/12/23 03:09:47;;;;;;;21.27;11.80;;;;;;;;;;5001668;28;20053;-72
2021/12/23 03:12:13;;;;;;;19.55;10.23;;;;;;;;;;5001762;28;20030;-72
2021/12/23 03:14:39;;;;;;;17.70;10.57;;;;;;;;;;5000823;28;20493;-72
2021/12/23 03:17:04;;;;;;;22.20;11.45;;;;;;;;;;5001627;28;20620;-72
2021/12/23 03:19:30;;;;;;;20.55;11.25;;;;;;;;;;5000908;28;20461;-72
2021/12/23 03:21:55;;;;;;;15.93;10.10;;;;;;;;;;5001310;28;20454;-73
2021/12/23 03:24:20;;;;;;;16.70;10.68;;;;;;;;;;5001278;28;20056;-72
2021/12/23 03:26:46;;;;;;;15.85;9.63;;;;;;;;;;5001061;28;20061;-73
2021/12/23 03:29:12;;;;;;;17.77;10.45;;;;;;;;;;5000738;28;20044;-72
2021/12/23 03:31:38;;;;;;;18.30;9.90;;;;;;;;;;5000734;28;20038;-72
2021/12/23 03:34:04;;;;;;;21.00;11.30;;;;;;;;;;5000336;28;20549;-73
2021/12/23 03:36:30;;;;;;;16.25;10.40;;;;;;;;;;5001256;28;20026;-73
2021/12/23 03:38:56;;;;;;;17.73;10.07;;;;;;;;;;5001384;28;20529;-73
2021/12/23 03:41:22;;;;;;;20.45;10.75;;;;;;;;;;5000180;28;20053;-73
2021/12/23 03:43:47;;;;;;;18.67;10.15;;;;;;;;;;4999627;28;20034;-72
2021/12/23 03:46:12;;;;;;;18.45;12.02;;;;;;;;;;5000932;28;20069;-73
2021/12/23 03:48:38;;;;;;;20.67;9.57;;;;;;;;;;5001451;28;20053;-72
2021/12/23 03:51:03;;;;;;;16.42;9.80;;;;;;;;;;5001260;28;20046;-73
2021/12/23 03:53:29;;;;;;;17.55;10.07;;;;;;;;;;5000257;28;20037;-73
2021/12/23 03:55:55;;;;;;;19.05;10.63;;;;;;;;;;5001123;28;20117;-72
2021/12/23 03:58:21;;;;;;;20.20;11.15;;;;;;;;;;5001089;28;20046;-73
2021/12/23 04:00:48;;;;;;;15.68;9.90;;;;;;;;;;5001017;28;20030;-72
2021/12/23 04:03:13;;;;;;;17.60;9.93;;;;;;;;;;5000268;28;20117;-72
2021/12/23 04:05:39;;;;;;;17.67;10.40;;;;;;;;;;5000994;28;20120;-72
2021/12/23 04:08:05;;;;;;;15.55;9.90;;;;;;;;;;5001222;28;20034;-72
2021/12/23 04:10:30;;;;;;;18.75;11.70;;;;;;;;;;5001434;28;20100;-72
2021/12/23 04:12:56;;;;;;;20.13;10.93;;;;;;;;;;5000487;28;20046;-73
2021/12/23 04:15:22;;;;;;;23.77;13.00;;;;;;;;;;5000040;28;20042;-73
2021/12/23 04:17:48;;;;;;;25.50;13.02;;;;;;;;;;4999630;28;20029;-72
2021/12/23 04:20:21;;;;;;;26.92;13.05;;;;;;;;;;4999509;28;20030;-72
2021/12/23 04:22:53;;;;;;;21.13;12.48;;;;;;;;;;5001017;28;20049;-72
2021/12/23 04:25:21;;;;;;;21.57;11.93;;;;;;;;;;5001900;28;20501;-72
2021/12/23 04:27:48;;;;;;;19.83;10.77;;;;;;;;;;4986872;28;20061;-73
2021/12/23 04:30:15;;;;;;;23.77;13.43;;;;;;;;;;5004404;28;20029;-73
2021/12/23 04:32:41;;;;;;;22.38;12.30;;;;;;;;;;5004596;28;20042;-73
2021/12/23 04:35:07;;;;;;;25.95;12.07;;;;;;;;;;5003744;28;20049;-72
2021/12/23 04:37:33;;;;;;;21.75;11.50;;;;;;;;;;5002214;28;20102;-72
2021/12/23 04:39:58;;;;;;;18.50;10.90;;;;;;;;;;5003333;28;20037;-72
2021/12/23 04:42:23;;;;;;;20.98;11.85;;;;;;;;;;5004382;28;20033;-72
2021/12/23 04:44:49;;;;;;;19.65;10.82;;;;;;;;;;5004234;28;20581;-72
2021/12/23 04:47:14;;;;;;;18.05;9.98;;;;;;;;;;5003484;28;20069;-73
2021/12/23 04:49:40;;;;;;;21.20;10.27;;;;;;;;;;5000718;28;20077;-72
2021/12/23 04:52:06;;;;;;;21.00;9.70;;;;;;;;;;5003949;28;20037;-72
2021/12/23 04:54:31;;;;;;;15.95;8.98;;;;;;;;;;5004185;28;20049;-72
2021/12/23 04:56:56;;;;;;;16.92;10.80;;;;;;;;;;5002778;28;20073;-72
2021/12/23 04:59:22;;;;;;;23.27;9.35;;;;;;;;;;5003726;28;20042;-71
2021/12/23 05:01:49;;;;;;;24.88;13.43;;;;;;;;;;5002360;28;20046;-73
2021/12/23 05:04:14;;;;;;;19.20;12.10;;;;;;;;;;5004120;28;20030;-72
2021/12/23 05:06:41;;;;;;;20.92;11.57;;;;;;;;;;4986137;28;20088;-73
2021/12/23 05:09:06;;;;;;;20.85;11.15;;;;;;;;;;5002924;28;20038;-72
2021/12/23 05:11:32;;;;;;;9.77;7.15;;;;;;;;;;5003508;28;20083;-72
2021/12/23 05:13:57;;;;;;;19.80;9.27;;;;;;;;;;5003755;28;20043;-72
2021/12/23 05:16:22;;;;;;;24.45;13.52;;;;;;;;;;5002387;28;20103;-71
2021/12/23 05:18:48;;;;;;;31.10;13.93;;;;;;;;;;5003997;28;20505;-72
2021/12/23 05:21:13;;;;;;;28.35;12.15;;;;;;;;;;5002900;28;20185;-73
2021/12/23 05:23:39;;;;;;;22.25;13.05;;;;;;;;;;5002177;28;20037;-72
2021/12/23 05:26:08;;;;;;;21.25;11.35;;;;;;;;;;5002553;28;20430;-72
2021/12/23 05:28:34;;;;;;;17.98;11.00;;;;;;;;;;5002501;28;20034;-72
2021/12/23 05:31:00;;;;;;;40.22;18.52;;;;;;;;;;5001149;28;20049;-74
2021/12/23 05:33:26;;;;;;;27.50;16.08;;;;;;;;;;5003570;28;20030;-74
2021/12/23 05:35:52;;;;;;;36.22;14.90;;;;;;;;;;5003557;28;20053;-75
2021/12/23 05:38:17;;;;;;;28.13;15.05;;;;;;;;;;5003108;28;20140;-74
2021/12/23 05:40:43;;;;;;;22.92;13.38;;;;;;;;;;5002153;28;20406;-75
2021/12/23 05:43:08;;;;;;;23.65;13.20;;;;;;;;;;5002938;28;20068;-75
2021/12/23 05:45:34;;;;;;;21.92;12.15;;;;;;;;;;4985474;28;20486;-75
2021/12/23 05:47:59;;;;;;;24.05;12.77;;;;;;;;;;5001606;28;20276;-75
2021/12/23 05:50:26;;;;;;;18.05;10.65;;;;;;;;;;5002640;28;20482;-70
2021/12/23 05:52:52;;;;;;;17.95;10.70;;;;;;;;;;5001810;28;20490;-71
2021/12/23 05:55:18;;;;;;;20.52;11.00;;;;;;;;;;5002912;28;20835;-71
2021/12/23 05:57:44;;;;;;;24.75;12.63;;;;;;;;;;5001832;28;20037;-70
2021/12/23 06:00:15;;;;;;;20.92;11.25;;;;;;;;;;5002078;28;20434;-70
2021/12/23 06:02:41;;;;;;;17.10;10.47;;;;;;;;;;5002491;28;20038;-69
2021/12/23 06:05:07;;;;;;;16.10;10.32;;;;;;;;;;5001919;28;21372;-69
2021/12/23 06:07:33;;;;;;;20.98;10.38;;;;;;;;;;5002547;28;20070;-72
2021/12/23 06:09:59;;;;;;;20.88;10.02;;;;;;;;;;5002766;28;20034;-71
2021/12/23 06:12:24;;;;;;;19.40;10.38;;;;;;;;;;5001806;28;20029;-72
2021/12/23 06:14:50;;;;;;;17.02;8.90;;;;;;;;;;4996265;28;20100;-72
2021/12/23 06:17:16;;;;;;;17.30;9.48;;;;;;;;;;4981911;28;20038;-71
2021/12/23 06:19:41;;;;;;;16.13;9.68;;;;;;;;;;4982144;28;20044;-71
2021/12/23 06:22:07;;;;;;;17.75;9.80;;;;;;;;;;4998283;28;20038;-71
2021/12/23 06:24:32;;;;;;;16.90;9.80;;;;;;;;;;4981149;28;20038;-71
2021/12/23 06:26:58;;;;;;;20.42;11.10;;;;;;;;;;4998755;28;20131;-72
2021/12/23 06:29:27;;;;;;;15.02;8.70;;;;;;;;;;5001715;28;20072;-71
2021/12/23 06:31:56;;;;;;;15.00;8.40;;;;;;;;;;4999916;28;20037;-72
2021/12/23 06:34:21;;;;;;;14.07;9.73;;;;;;;;;;4999704;28;20057;-71
2021/12/23 06:36:47;;;;;;;21.05;11.25;;;;;;;;;;4999207;28;20042;-71
2021/12/23 06:39:12;;;;;;;20.73;10.48;;;;;;;;;;5002429;28;20109;-72
2021/12/23 06:41:38;;;;;;;22.95;13.20;;;;;;;;;;5002408;28;20568;-71
2021/12/23 06:44:03;;;;;;;16.45;9.65;;;;;;;;;;5002153;28;20048;-72
2021/12/23 06:46:29;;;;;;;18.10;9.70;;;;;;;;;;4999767;28;20038;-71
2021/12/23 06:48:54;;;;;;;17.70;9.63;;;;;;;;;;4999032;28;20042;-71
2021/12/23 06:51:20;;;;;;;20.95;9.55;;;;;;;;;;5001818;28;20061;-70
2021/12/23 06:53:45;;;;;;;15.60;8.65;;;;;;;;;;5001637;28;20037;-71
2021/12/23 06:56:13;;;;;;;18.30;10.32;;;;;;;;;;5002080;28;20048;-72
2021/12/23 06:58:39;;;;;;;22.70;10.45;;;;;;;;;;5001649;28;20480;-73
2021/12/23 07:01:05;;;;;;;20.92;11.75;;;;;;;;;;5001532;28;20081;-72
2021/12/23 07:03:50;;;;;;;22.17;11.98;;;;;;;;;;5001909;28;20231;-71
2021/12/23 07:06:18;;;;;;;20.67;11.18;;;;;;;;;;5001537;28;20038;-71
2021/12/23 07:08:43;;;;;;;28.50;11.73;;;;;;;;;;5002074;28;20418;-71
2021/12/23 07:11:10;;;;;;;21.27;10.85;;;;;;;;;;5001413;28;20025;-73
2021/12/23 07:13:35;;;;;;;21.08;11.85;;;;;;;;;;5016696;28;20673;-72
2021/12/23 07:16:01;;;;;;;19.85;11.52;;;;;;;;;;5002082;28;20498;-72
2021/12/23 07:18:27;;;;;;;27.98;12.52;;;;;;;;;;5001127;28;20037;-73
2021/12/23 07:20:53;;;;;;;19.15;10.10;;;;;;;;;;5000557;28;20030;-71
2021/12/23 07:23:18;;;;;;;17.67;9.93;;;;;;;;;;5001847;28;20129;-70
2021/12/23 07:25:43;;;;;;;17.95;8.98;;;;;;;;;;4999750;28;20132;-72
2021/12/23 07:28:09;;;;;;;16.75;10.38;;;;;;;;;;5001310;28;20045;-70
2021/12/23 07:30:34;;;;;;;15.48;9.85;;;;;;;;;;5001101;28;20033;-72
2021/12/23 07:33:00;;;;;;;15.43;8.88;;;;;;;;;;5000103;28;20030;-72
2021/12/23 07:35:25;;;;;;;15.60;9.15;;;;;;;;;;5000024;28;20038;-72
2021/12/23 07:37:51;;;;;;;18.10;9.77;;;;;;;;;;5001245;28;20046;-71
2021/12/23 07:40:17;;;;;;;15.77;9.40;;;;;;;;;;5000314;28;20037;-71
2021/12/23 07:42:53;;;;;;;19.33;10.45;;;;;;;;;;5000520;28;20491;-71
2021/12/23 07:45:26;;;;;;;18.85;9.85;;;;;;;;;;4999696;28;20042;-71
2021/12/23 07:47:52;;;;;;;13.55;8.50;;;;;;;;;;5000581;28;20111;-72
2021/12/23 07:50:18;;;;;;;13.02;8.48;;;;;;;;;;5001105;28;20479;-71
2021/12/23 07:52:43;;;;;;;16.83;9.32;;;;;;;;;;5001311;28;20232;-70
2021/12/23 07:55:09;;;;;;;17.90;8.82;;;;;;;;;;4998730;28;20124;-71
2021/12/23 07:57:34;;;;;;;14.38;8.30;;;;;;;;;;5001235;28;20490;-71
2021/12/23 08:00:01;;;;;;;13.95;8.27;;;;;;;;;;5000622;28;20049;-73
2021/12/23 08:02:26;;;;;;;14.23;7.95;;;;;;;;;;5005083;28;20347;-71
2021/12/23 08:04:52;;;;;;;17.77;8.13;;;;;;;;;;5004308;28;20037;-72
2021/12/23 08:07:17;;;;;;;13.07;8.23;;;;;;;;;;4987191;28;20026;-72
2021/12/23 08:09:43;;;;;;;11.85;7.95;;;;;;;;;;5004980;28;20117;-71
2021/12/23 08:12:09;;;;;;;12.02;7.03;;;;;;;;;;5004305;28;20045;-72
2021/12/23 08:14:34;;;;;;;10.15;6.85;;;;;;;;;;5004993;28;20037;-73
2021/12/23 08:17:00;;;;;;;13.50;7.53;;;;;;;;;;5003611;28;20099;-71
2021/12/23 08:19:25;;;;;;;14.00;7.10;;;;;;;;;;5004568;28;20041;-70
2021/12/23 08:21:51;;;;;;;15.68;8.10;;;;;;;;;;5004104;28;20485;-71
2021/12/23 08:24:17;;;;;;;11.82;7.15;;;;;;;;;;5004677;28;20052;-71
2021/12/23 08:26:50;;;;;;;10.55;7.35;;;;;;;;;;5003977;28;20046;-70
2021/12/23 08:29:18;;;;;;;13.77;7.43;;;;;;;;;;5005348;28;20422;-71
2021/12/23 08:31:45;;;;;;;10.35;6.70;;;;;;;;;;5002681;28;20049;-71
2021/12/23 08:34:10;;;;;;;11.77;6.78;;;;;;;;;;5004599;28;20065;-72
2021/12/23 08:36:36;;;;;;;10.05;7.00;;;;;;;;;;5003707;28;20113;-71
2021/12/23 08:39:02;;;;;;;10.98;6.95;;;;;;;;;;5003594;28;20708;-71
2021/12/23 08:41:28;;;;;;;11.10;6.65;;;;;;;;;;5004281;28;20034;-71
2021/12/23 08:43:53;;;;;;;11.57;7.03;;;;;;;;;;5004096;28;20041;-71
2021/12/23 08:46:20;;;;;;;11.40;6.57;;;;;;;;;;5004534;28;20042;-71
2021/12/23 08:48:45;;;;;;;8.35;6.03;;;;;;;;;;5003607;28;20060;-72
2021/12/23 08:51:11;;;;;;;11.57;6.60;;;;;;;;;;5004089;28;20442;-71
2021/12/23 08:53:36;;;;;;;12.80;6.95;;;;;;;;;;5004177;28;20038;-71
2021/12/23 08:56:02;;;;;;;11.55;6.47;;;;;;;;;;5004092;28;20029;-72
2021/12/23 08:58:27;;;;;;;10.25;6.20;;;;;;;;;;5003947;28;20479;-71
2021/12/23 09:00:53;;;;;;;11.95;7.55;;;;;;;;;;5002821;28;20730;-71
2021/12/23 09:03:18;;;;;;;13.07;8.00;;;;;;;;;;5004206;28;20380;-72
2021/12/23 09:05:44;;;;;;;13.77;8.05;;;;;;;;;;5003652;28;20490;-72
2021/12/23 09:08:10;;;;;;;14.48;7.93;;;;;;;;;;5003861;28;20092;-72
2021/12/23 09:10:36;;;;;;;12.98;8.05;;;;;;;;;;5003309;28;20196;-71
2021/12/23 09:13:02;;;;;;;16.45;7.75;;;;;;;;;;5003546;28;20124;-71
2021/12/23 09:15:28;;;;;;;14.88;7.93;;;;;;;;;;5004164;28;20040;-72
2021/12/23 09:17:54;;;;;;;12.18;7.55;;;;;;;;;;5003283;28;20033;-72
2021/12/23 09:20:21;;;;;;;14.88;7.95;;;;;;;;;;5003251;28;20038;-72
2021/12/23 09:22:47;;;;;;;14.85;7.38;;;;;;;;;;5002216;28;20064;-71
2021/12/23 09:25:23;;;;;;;9.30;6.32;;;;;;;;;;5001495;28;20450;-73
2021/12/23 09:33:16;;;;;;;9.98;6.25;;;;;;;;;;5002537;28;19959;-69
2021/12/23 09:35:42;;;;;;;11.52;6.63;;;;;;;;;;5003193;28;20041;-70
2021/12/23 09:38:09;;;;;;;9.43;6.80;;;;;;;;;;5003269;28;20596;-71
2021/12/23 09:40:35;;;;;;;8.70;6.10;;;;;;;;;;5003031;28;20037;-69
2021/12/23 09:43:03;;;;;;;9.68;6.38;;;;;;;;;;5003306;28;20033;-68
2021/12/23 09:45:31;;;;;;;9.27;5.88;;;;;;;;;;5001929;28;20033;-69
2021/12/23 09:47:58;;;;;;;11.10;6.82;;;;;;;;;;5002947;28;20128;-70
2021/12/23 09:50:26;;;;;;;12.82;7.05;;;;;;;;;;5003042;28;20119;-69
2021/12/23 09:52:53;;;;;;;12.10;6.22;;;;;;;;;;5002979;28;20128;-70
2021/12/23 09:55:23;;;;;;;9.00;6.53;;;;;;;;;;4984705;28;20041;-69
2021/12/23 09:57:51;;;;;;;13.93;6.85;;;;;;;;;;5002659;28;20504;-67
2021/12/23 10:00:20;;;;;;;10.82;6.72;;;;;;;;;;5002675;28;20100;-71
2021/12/23 10:02:46;;;;;;;10.32;6.97;;;;;;;;;;5001308;28;20092;-70
2021/12/23 10:05:15;;;;;;;11.68;7.90;;;;;;;;;;5002397;28;20038;-70
2021/12/23 10:07:44;;;;;;;11.50;8.20;;;;;;;;;;5001611;28;20045;-70
2021/12/23 10:10:18;;;;;;;14.63;7.55;;;;;;;;;;5003016;28;20034;-70
2021/12/23 10:32:14;;;;;;;10.57;7.47;;;;;;;;;;5002064;28;20081;-71
2021/12/23 10:37:22;;;;;;;14.63;8.18;;;;;;;;;;5002337;28;20033;-68
2021/12/23 10:40:03;;;;;;;12.70;7.70;;;;;;;;;;5001267;28;20042;-73
2021/12/23 10:42:29;;;;;;;10.80;7.30;;;;;;;;;;5000657;28;20030;-73
2021/12/23 10:45:03;;;;;;;11.38;8.00;;;;;;;;;;5002195;28;20037;-69
2021/12/23 10:47:57;;;;;;;12.02;8.13;;;;;;;;;;5000662;28;20044;-69
2021/12/23 10:50:41;;;;;;;11.73;6.88;;;;;;;;;;5001234;28;20029;-71
2021/12/23 10:53:37;;;;;;;13.85;7.30;;;;;;;;;;5001942;28;20041;-70
2021/12/23 10:59:02;;;;;;;15.82;6.80;;;;;;;;;;5002034;28;20037;-69
2021/12/23 11:01:28;;;;;;;13.23;7.32;;;;;;;;;;5000902;28;20136;-69
2021/12/23 11:04:00;;;;;;;11.07;7.40;;;;;;;;;;4999930;28;20458;-70
2021/12/23 11:06:35;;;;;;;12.10;7.43;;;;;;;;;;5001127;28;20057;-71
2021/12/23 11:43:57;;;;;;;19.77;9.68;;;;;;;;;;4988725;28;20037;-72
2021/12/23 11:46:41;;;;;;;15.98;9.32;;;;;;;;;;4983953;28;20046;-72
2021/12/23 11:49:09;;;;;;;14.45;9.43;;;;;;;;;;4989056;28;20038;-72
2021/12/23 11:51:51;;;;;;;23.23;9.05;;;;;;;;;;4989024;28;20054;-72
2021/12/23 11:54:26;;;;;;;18.43;9.53;;;;;;;;;;4990030;28;20050;-72
2021/12/23 11:57:00;;;;;;;13.82;7.80;;;;;;;;;;4989697;28;20368;-72
2021/12/23 11:59:26;;;;;;;13.80;8.23;;;;;;;;;;4990790;28;20475;-72
2021/12/23 12:01:54;;;;;;;16.00;8.05;;;;;;;;;;4990370;28;20074;-72
2021/12/23 12:04:24;;;;;;;15.73;9.00;;;;;;;;;;4990622;28;20498;-72
2021/12/23 12:06:51;;;;;;;16.08;8.77;;;;;;;;;;4989750;28;20038;-72
2021/12/23 12:09:16;;;;;;;14.55;8.57;;;;;;;;;;4990521;28;20117;-72
2021/12/23 12:11:49;;;;;;;13.05;8.23;;;;;;;;;;4990523;28;20463;-72
2021/12/23 12:14:40;;;;;;;13.82;7.72;;;;;;;;;;4990411;28;20120;-72
2021/12/23 12:17:30;;;;;;;15.63;7.33;;;;;;;;;;4982832;28;20519;-72
2021/12/23 12:20:11;;;;;;;15.13;7.97;;;;;;;;;;4989689;28;20289;-72
2021/12/23 12:23:00;;;;;;;17.85;9.30;;;;;;;;;;4990454;28;20117;-72
2021/12/23 12:25:25;;;;;;;15.60;8.80;;;;;;;;;;4988981;28;20068;-72
2021/12/23 12:28:12;;;;;;;20.52;9.15;;;;;;;;;;4973097;28;20105;-72
2021/12/23 12:30:39;;;;;;;16.55;7.95;;;;;;;;;;4975288;28;20108;-72
2021/12/23 12:33:08;;;;;;;16.30;9.15;;;;;;;;;;4990288;28;20497;-72
2021/12/23 12:35:34;;;;;;;11.48;7.78;;;;;;;;;;4990340;28;20042;-72
2021/12/23 12:38:23;;;;;;;14.70;7.15;;;;;;;;;;4990354;28;20375;-73
2021/12/23 12:40:58;;;;;;;9.43;6.28;;;;;;;;;;4989243;28;20057;-73
2021/12/23 12:43:41;;;;;;;13.75;7.53;;;;;;;;;;4969475;28;20034;-73
2021/12/23 12:46:07;;;;;;;10.65;6.07;;;;;;;;;;4980079;28;20039;-73
2021/12/23 12:48:55;;;;;;;11.32;5.95;;;;;;;;;;5009192;28;20410;-72
2021/12/23 12:51:25;;;;;;;8.18;5.63;;;;;;;;;;4993127;28;20030;-73
2021/12/23 12:54:03;;;;;;;14.52;6.15;;;;;;;;;;4993513;28;20490;-73
2021/12/23 12:56:30;;;;;;;18.25;6.75;;;;;;;;;;4993503;28;20050;-72
2021/12/23 12:58:56;;;;;;;12.70;6.30;;;;;;;;;;4993797;28;20521;-72
2021/12/23 13:01:45;;;;;;;8.02;5.68;;;;;;;;;;4992764;28;20050;-72
2021/12/23 13:04:34;;;;;;;11.82;6.90;;;;;;;;;;4986850;28;20038;-73
2021/12/23 13:07:28;;;;;;;9.45;6.28;;;;;;;;;;4975787;28;20515;-73
2021/12/23 13:10:19;;;;;;;14.68;7.15;;;;;;;;;;4992872;28;20052;-72
2021/12/23 13:13:11;;;;;;;14.43;7.53;;;;;;;;;;4962533;28;20779;-73
2021/12/23 13:15:59;;;;;;;12.30;6.82;;;;;;;;;;4993005;28;20529;-73
2021/12/23 13:18:25;;;;;;;11.65;6.70;;;;;;;;;;4992174;28;20050;-72
2021/12/23 13:20:55;;;;;;;13.95;7.75;;;;;;;;;;4993305;28;20034;-72
2021/12/23 13:23:29;;;;;;;14.60;7.57;;;;;;;;;;4992685;28;20038;-74
2021/12/23 13:26:03;;;;;;;15.65;7.13;;;;;;;;;;4992406;28;20046;-72
2021/12/23 13:28:29;;;;;;;15.73;8.02;;;;;;;;;;4993123;28;20053;-72
2021/12/23 13:30:55;;;;;;;15.10;8.00;;;;;;;;;;4975599;28;20038;-72
2021/12/23 13:33:22;;;;;;;12.13;6.90;;;;;;;;;;4993056;28;20037;-73
2021/12/23 13:35:47;;;;;;;14.70;6.60;;;;;;;;;;4958212;28;20129;-72
2021/12/23 13:38:42;;;;;;;18.10;8.02;;;;;;;;;;4992937;28;20138;-74
2021/12/23 13:41:15;;;;;;;12.75;7.18;;;;;;;;;;4980071;28;20054;-74
2021/12/23 13:43:41;;;;;;;14.00;7.63;;;;;;;;;;4993229;28;20054;-74
2021/12/23 13:46:08;;;;;;;11.07;7.53;;;;;;;;;;4991669;28;20072;-73
2021/12/23 13:49:00;;;;;;;11.40;7.43;;;;;;;;;;4992742;28;20041;-74
2021/12/23 13:51:29;;;;;;;14.65;7.60;;;;;;;;;;4992844;28;20100;-74
2021/12/23 13:54:13;;;;;;;12.68;7.00;;;;;;;;;;4990910;28;20034;-74
2021/12/23 13:56:42;;;;;;;11.98;7.25;;;;;;;;;;4970722;28;20038;-73
2021/12/23 13:59:34;;;;;;;18.27;7.60;;;;;;;;;;4970821;28;20527;-73
2021/12/23 14:02:12;;;;;;;11.57;7.50;;;;;;;;;;4984460;28;20050;-73
2021/12/23 14:04:42;;;;;;;14.57;7.80;;;;;;;;;;4975072;28;20042;-74
2021/12/23 14:07:22;;;;;;;13.38;7.05;;;;;;;;;;4991542;28;20557;-74
2021/12/23 14:10:01;;;;;;;14.30;7.10;;;;;;;;;;4975027;28;20084;-74
2021/12/23 14:12:46;;;;;;;19.35;9.20;;;;;;;;;;4974925;28;20057;-74
2021/12/23 14:15:21;;;;;;;13.68;8.32;;;;;;;;;;4991983;28;20045;-73
2021/12/23 14:23:26;;;;;;;14.85;7.13;;;;;;;;;;4992152;28;20034;-73
2021/12/23 14:25:57;;;;;;;13.85;7.45;;;;;;;;;;4991657;28;20038;-73
2021/12/23 14:28:53;;;;;;;15.48;8.20;;;;;;;;;;4992161;28;20089;-72
2021/12/23 14:31:25;;;;;;;13.75;8.20;;;;;;;;;;4978607;28;20050;-73
2021/12/23 14:33:52;;;;;;;;;;;;;;;;;;4992078;28;20125;-73
2021/12/23 14:36:37;;;;;;;23.92;13.25;;;;;;;;;;4991766;28;19920;-73
2021/12/23 14:39:02;;;;;;;31.63;15.80;;;;;;;;;;4991902;28;20073;-73
2021/12/23 14:41:37;;;;;;;56.75;24.27;;;;;;;;;;4990994;28;20124;-72
2021/12/23 14:44:11;;;;;;;101.10;40.25;;;;;;;;;;4983968;28;20035;-73
2021/12/23 14:46:41;;;;;;;70.65;32.85;;;;;;;;;;4991086;28;20423;-73
2021/12/23 14:51:43;;;;;;;44.55;22.40;;;;;;;;;;4989271;28;20041;-73
2021/12/23 14:54:16;;;;;;;20.88;12.52;;;;;;;;;;4991229;28;20030;-72
2021/12/23 14:56:44;;;;;;;19.73;12.25;;;;;;;;;;4991447;28;20030;-73
2021/12/23 14:59:18;;;;;;;23.83;14.20;;;;;;;;;;4991552;28;20041;-73
2021/12/23 15:01:46;;;;;;;23.17;12.60;;;;;;;;;;4991170;28;20041;-73
2021/12/23 15:04:17;;;;;;;23.90;11.50;;;;;;;;;;4990637;28;20070;-73
2021/12/23 15:07:03;;;;;;;23.25;10.50;;;;;;;;;;4991034;28;20048;-73
2021/12/23 15:09:32;;;;;;;16.40;10.05;;;;;;;;;;4990765;28;20170;-73
2021/12/23 15:12:14;;;;;;;25.88;12.57;;;;;;;;;;4991214;28;20128;-72
2021/12/23 15:14:47;;;;;;;23.33;13.82;;;;;;;;;;4990726;28;20027;-73
2021/12/23 15:17:18;;;;;;;23.67;14.52;;;;;;;;;;4991086;28;20031;-73
2021/12/23 15:19:49;;;;;;;19.08;11.23;;;;;;;;;;4991164;28;20508;-73
2021/12/23 15:22:23;;;;;;;17.60;10.90;;;;;;;;;;4991262;28;20034;-72
2021/12/23 15:25:07;;;;;;;18.60;10.32;;;;;;;;;;4972675;28;20316;-73
2021/12/23 15:27:38;;;;;;;20.02;10.07;;;;;;;;;;4990779;28;20038;-73
2021/12/23 15:30:13;;;;;;;20.77;11.48;;;;;;;;;;4991034;28;20034;-72
2021/12/23 15:32:38;;;;;;;19.13;10.93;;;;;;;;;;4991397;28;20497;-73
2021/12/23 15:35:09;;;;;;;25.42;14.43;;;;;;;;;;4990927;28;20546;-73
2021/12/23 15:37:37;;;;;;;27.23;15.23;;;;;;;;;;4985990;28;20066;-73
2021/12/23 15:40:16;;;;;;;21.02;12.60;;;;;;;;;;4970195;28;20541;-74
2021/12/23 15:42:42;;;;;;;21.08;10.80;;;;;;;;;;4971473;28;20050;-72
2021/12/23 15:45:08;;;;;;;18.52;11.65;;;;;;;;;;4971787;28;20061;-73
2021/12/23 15:47:33;;;;;;;21.17;10.63;;;;;;;;;;4990043;28;20364;-73
2021/12/23 15:50:01;;;;;;;24.23;10.15;;;;;;;;;;4990587;28;20053;-73
2021/12/23 15:52:27;;;;;;;19.17;10.70;;;;;;;;;;4990795;28;20077;-73
2021/12/23 15:54:54;;;;;;;19.30;11.20;;;;;;;;;;4990690;28;20125;-73
2021/12/23 15:57:21;;;;;;;17.05;10.23;;;;;;;;;;4989922;28;20030;-73